sensor_id;sensor_type;location;lat;lon;timestamp;pressure;altitude;pressure_sealevel;temperature
20848;BMP180;10584;50.854;12.902;2023-03-14T00:03:38;96001.00;;;10.00
20848;BMP180;10584;50.854;12.902;2023-03-14T00:09:00;95972.00;;;10.00
20848;BMP180;10584;50.854;12.902;2023-03-14T00:14:22;95976.00;;;10.00
20848;BMP180;10584;50.854;12.902;2023-03-14T00:19:43;95976.00;;;9.90
20848;BMP180;10584;50.854;12.902;2023-03-14T00:25:07;95997.00;;;10.10
20848;BMP180;10584;50.854;12.902;2023-03-14T00:30:29;95989.00;;;10.00
20848;BMP180;10584;50.854;12.902;2023-03-14T00:35:56;96011.00;;;9.90
20848;BMP180;10584;50.854;12.902;2023-03-14T00:41:22;95995.00;;;9.50
20848;BMP180;10584;50.854;12.902;2023-03-14T00:46:44;96003.00;;;9.50
20848;BMP180;10584;50.854;12.902;2023-03-14T00:52:06;96028.00;;;9.50
20848;BMP180;10584;50.854;12.902;2023-03-14T00:57:27;96002.00;;;9.50
20848;BMP180;10584;50.854;12.902;2023-03-14T01:02:49;96007.00;;;9.40
20848;BMP180;10584;50.854;12.902;2023-03-14T01:08:13;96011.00;;;9.60
20848;BMP180;10584;50.854;12.902;2023-03-14T01:13:35;96025.00;;;9.50
20848;BMP180;10584;50.854;12.902;2023-03-14T01:18:57;96039.00;;;9.50
20848;BMP180;10584;50.854;12.902;2023-03-14T01:24:18;96038.00;;;9.50
20848;BMP180;10584;50.854;12.902;2023-03-14T01:29:40;96044.00;;;9.60
20848;BMP180;10584;50.854;12.902;2023-03-14T01:35:02;96037.00;;;9.60
20848;BMP180;10584;50.854;12.902;2023-03-14T01:40:24;96035.00;;;9.60
20848;BMP180;10584;50.854;12.902;2023-03-14T02:03:11;96005.00;;;9.70
20848;BMP180;10584;50.854;12.902;2023-03-14T02:08:36;96004.00;;;9.70
20848;BMP180;10584;50.854;12.902;2023-03-14T02:14:02;95983.00;;;9.80
20848;BMP180;10584;50.854;12.902;2023-03-14T02:20:29;95978.00;;;10.00
20848;BMP180;10584;50.854;12.902;2023-03-14T02:25:52;95963.00;;;10.10
20848;BMP180;10584;50.854;12.902;2023-03-14T02:31:16;95966.00;;;10.10
20848;BMP180;10584;50.854;12.902;2023-03-14T02:36:38;95956.00;;;10.10
20848;BMP180;10584;50.854;12.902;2023-03-14T02:42:00;95954.00;;;10.20
20848;BMP180;10584;50.854;12.902;2023-03-14T02:47:29;95940.00;;;10.10
20848;BMP180;10584;50.854;12.902;2023-03-14T02:52:52;95941.00;;;10.20
20848;BMP180;10584;50.854;12.902;2023-03-14T02:58:14;95944.00;;;10.10
20848;BMP180;10584;50.854;12.902;2023-03-14T03:03:37;95954.00;;;10.10
20848;BMP180;10584;50.854;12.902;2023-03-14T03:08:59;95957.00;;;10.00
20848;BMP180;10584;50.854;12.902;2023-03-14T03:14:20;95958.00;;;10.00
20848;BMP180;10584;50.854;12.902;2023-03-14T03:19:43;95974.00;;;9.90
20848;BMP180;10584;50.854;12.902;2023-03-14T03:25:06;95961.00;;;9.90
20848;BMP180;10584;50.854;12.902;2023-03-14T03:30:28;95962.00;;;9.80
20848;BMP180;10584;50.854;12.902;2023-03-14T03:35:50;95957.00;;;9.80
20848;BMP180;10584;50.854;12.902;2023-03-14T03:41:21;95950.00;;;9.80
20848;BMP180;10584;50.854;12.902;2023-03-14T03:46:44;95951.00;;;9.80
20848;BMP180;10584;50.854;12.902;2023-03-14T03:52:05;95952.00;;;9.70
20848;BMP180;10584;50.854;12.902;2023-03-14T03:57:28;95951.00;;;9.60
20848;BMP180;10584;50.854;12.902;2023-03-14T04:02:50;95965.00;;;9.80
20848;BMP180;10584;50.854;12.902;2023-03-14T04:08:12;95953.00;;;9.70
20848;BMP180;10584;50.854;12.902;2023-03-14T04:13:34;95960.00;;;9.50
20848;BMP180;10584;50.854;12.902;2023-03-14T04:18:58;95965.00;;;9.40
20848;BMP180;10584;50.854;12.902;2023-03-14T04:24:20;95955.00;;;9.50
20848;BMP180;10584;50.854;12.902;2023-03-14T04:29:43;95957.00;;;9.60
20848;BMP180;10584;50.854;12.902;2023-03-14T04:35:08;95947.00;;;9.50
20848;BMP180;10584;50.854;12.902;2023-03-14T04:40:30;95925.00;;;9.40
20848;BMP180;10584;50.854;12.902;2023-03-14T04:45:58;95929.00;;;9.50
20848;BMP180;10584;50.854;12.902;2023-03-14T04:51:20;95924.00;;;9.50
20848;BMP180;10584;50.854;12.902;2023-03-14T04:56:44;95923.00;;;9.60
20848;BMP180;10584;50.854;12.902;2023-03-14T05:02:06;95918.00;;;9.60
20848;BMP180;10584;50.854;12.902;2023-03-14T05:07:48;95913.00;;;9.50
20848;BMP180;10584;50.854;12.902;2023-03-14T05:13:19;95903.00;;;9.50
20848;BMP180;10584;50.854;12.902;2023-03-14T05:18:48;95888.00;;;9.60
20848;BMP180;10584;50.854;12.902;2023-03-14T05:24:28;95880.00;;;9.50
20848;BMP180;10584;50.854;12.902;2023-03-14T05:30:13;95877.00;;;9.50
20848;BMP180;10584;50.854;12.902;2023-03-14T05:36:00;95867.00;;;9.40
20848;BMP180;10584;50.854;12.902;2023-03-14T05:41:51;95871.00;;;9.50
20848;BMP180;10584;50.854;12.902;2023-03-14T05:47:33;95874.00;;;9.50
20848;BMP180;10584;50.854;12.902;2023-03-14T05:53:14;95872.00;;;9.50
20848;BMP180;10584;50.854;12.902;2023-03-14T05:59:07;95884.00;;;9.50
20848;BMP180;10584;50.854;12.902;2023-03-14T06:04:45;95890.00;;;9.60
20848;BMP180;10584;50.854;12.902;2023-03-14T06:10:08;95888.00;;;9.70
20848;BMP180;10584;50.854;12.902;2023-03-14T06:15:31;95891.00;;;9.70
20848;BMP180;10584;50.854;12.902;2023-03-14T06:20:55;95885.00;;;9.70
20848;BMP180;10584;50.854;12.902;2023-03-14T06:26:19;95896.00;;;9.70
20848;BMP180;10584;50.854;12.902;2023-03-14T06:31:43;95895.00;;;9.80
20848;BMP180;10584;50.854;12.902;2023-03-14T06:37:08;95873.00;;;9.80
20848;BMP180;10584;50.854;12.902;2023-03-14T06:42:30;95888.00;;;9.80
20848;BMP180;10584;50.854;12.902;2023-03-14T06:47:52;95894.00;;;9.80
20848;BMP180;10584;50.854;12.902;2023-03-14T06:53:18;95901.00;;;9.90
20848;BMP180;10584;50.854;12.902;2023-03-14T06:58:40;95909.00;;;9.90
20848;BMP180;10584;50.854;12.902;2023-03-14T07:04:04;95905.00;;;10.00
20848;BMP180;10584;50.854;12.902;2023-03-14T07:09:27;95910.00;;;10.00
20848;BMP180;10584;50.854;12.902;2023-03-14T07:14:53;95917.00;;;10.00
20848;BMP180;10584;50.854;12.902;2023-03-14T07:20:16;95923.00;;;9.90
20848;BMP180;10584;50.854;12.902;2023-03-14T07:25:39;95938.00;;;10.00
20848;BMP180;10584;50.854;12.902;2023-03-14T07:31:02;95922.00;;;9.90
20848;BMP180;10584;50.854;12.902;2023-03-14T07:36:25;95927.00;;;10.00
20848;BMP180;10584;50.854;12.902;2023-03-14T07:41:48;95920.00;;;10.00
20848;BMP180;10584;50.854;12.902;2023-03-14T07:47:30;95920.00;;;10.10
20848;BMP180;10584;50.854;12.902;2023-03-14T07:52:52;95919.00;;;10.10
20848;BMP180;10584;50.854;12.902;2023-03-14T07:58:14;95916.00;;;10.30
20848;BMP180;10584;50.854;12.902;2023-03-14T08:03:36;95918.00;;;10.20
20848;BMP180;10584;50.854;12.902;2023-03-14T08:08:58;95911.00;;;10.30
20848;BMP180;10584;50.854;12.902;2023-03-14T08:14:20;95911.00;;;10.30
20848;BMP180;10584;50.854;12.902;2023-03-14T08:19:42;95896.00;;;10.30
20848;BMP180;10584;50.854;12.902;2023-03-14T08:25:04;95882.00;;;10.50
20848;BMP180;10584;50.854;12.902;2023-03-14T08:30:26;95881.00;;;10.50
20848;BMP180;10584;50.854;12.902;2023-03-14T08:35:48;95884.00;;;10.80
20848;BMP180;10584;50.854;12.902;2023-03-14T08:41:10;95863.00;;;10.80
20848;BMP180;10584;50.854;12.902;2023-03-14T08:46:32;95874.00;;;10.90
20848;BMP180;10584;50.854;12.902;2023-03-14T08:51:53;95890.00;;;10.90
20848;BMP180;10584;50.854;12.902;2023-03-14T08:57:15;95895.00;;;10.90
20848;BMP180;10584;50.854;12.902;2023-03-14T09:02:37;95909.00;;;10.80
20848;BMP180;10584;50.854;12.902;2023-03-14T09:07:58;95906.00;;;10.80
20848;BMP180;10584;50.854;12.902;2023-03-14T09:13:20;95924.00;;;10.80
20848;BMP180;10584;50.854;12.902;2023-03-14T09:18:42;95928.00;;;10.70
20848;BMP180;10584;50.854;12.902;2023-03-14T09:24:05;95928.00;;;10.80
20848;BMP180;10584;50.854;12.902;2023-03-14T09:29:26;95924.00;;;10.80
20848;BMP180;10584;50.854;12.902;2023-03-14T09:34:48;95924.00;;;10.80
20848;BMP180;10584;50.854;12.902;2023-03-14T09:40:14;95925.00;;;10.90
20848;BMP180;10584;50.854;12.902;2023-03-14T09:45:38;95921.00;;;10.80
20848;BMP180;10584;50.854;12.902;2023-03-14T09:51:22;95924.00;;;10.80
20848;BMP180;10584;50.854;12.902;2023-03-14T09:56:45;95922.00;;;10.80
20848;BMP180;10584;50.854;12.902;2023-03-14T10:02:22;95916.00;;;10.90
20848;BMP180;10584;50.854;12.902;2023-03-14T10:07:44;95920.00;;;10.90
20848;BMP180;10584;50.854;12.902;2023-03-14T10:13:24;95937.00;;;10.90
20848;BMP180;10584;50.854;12.902;2023-03-14T10:18:47;95926.00;;;11.00
20848;BMP180;10584;50.854;12.902;2023-03-14T10:24:10;95923.00;;;11.00
20848;BMP180;10584;50.854;12.902;2023-03-14T10:29:55;95917.00;;;11.10
20848;BMP180;10584;50.854;12.902;2023-03-14T10:35:22;95922.00;;;11.20
20848;BMP180;10584;50.854;12.902;2023-03-14T10:40:49;95923.00;;;11.40
20848;BMP180;10584;50.854;12.902;2023-03-14T10:46:15;95920.00;;;11.60
20848;BMP180;10584;50.854;12.902;2023-03-14T10:52:02;95931.00;;;11.30
20848;BMP180;10584;50.854;12.902;2023-03-14T10:57:39;95926.00;;;11.30
20848;BMP180;10584;50.854;12.902;2023-03-14T11:03:11;95919.00;;;11.30
20848;BMP180;10584;50.854;12.902;2023-03-14T11:08:49;95929.00;;;11.30
20848;BMP180;10584;50.854;12.902;2023-03-14T11:14:19;95920.00;;;11.30
20848;BMP180;10584;50.854;12.902;2023-03-14T11:31:41;95922.00;;;11.70
20848;BMP180;10584;50.854;12.902;2023-03-14T11:37:34;95934.00;;;11.50
20848;BMP180;10584;50.854;12.902;2023-03-14T11:43:06;95913.00;;;11.40
20848;BMP180;10584;50.854;12.902;2023-03-14T11:48:51;95924.00;;;11.20
20848;BMP180;10584;50.854;12.902;2023-03-14T12:00:19;95930.00;;;11.60
20848;BMP180;10584;50.854;12.902;2023-03-14T12:05:56;95907.00;;;11.90
20848;BMP180;10584;50.854;12.902;2023-03-14T12:11:42;95913.00;;;12.00
20848;BMP180;10584;50.854;12.902;2023-03-14T12:17:38;95919.00;;;12.30
20848;BMP180;10584;50.854;12.902;2023-03-14T12:23:10;95925.00;;;12.70
20848;BMP180;10584;50.854;12.902;2023-03-14T12:28:33;95917.00;;;12.50
20848;BMP180;10584;50.854;12.902;2023-03-14T12:34:31;95907.00;;;13.00
20848;BMP180;10584;50.854;12.902;2023-03-14T12:40:21;95893.00;;;12.90
20848;BMP180;10584;50.854;12.902;2023-03-14T12:46:24;95905.00;;;12.60
20848;BMP180;10584;50.854;12.902;2023-03-14T12:51:46;95898.00;;;12.40
20848;BMP180;10584;50.854;12.902;2023-03-14T13:02:42;95881.00;;;12.00
20848;BMP180;10584;50.854;12.902;2023-03-14T13:08:08;95880.00;;;11.80
20848;BMP180;10584;50.854;12.902;2023-03-14T13:13:30;95878.00;;;11.70
20848;BMP180;10584;50.854;12.902;2023-03-14T13:19:09;95872.00;;;12.00
20848;BMP180;10584;50.854;12.902;2023-03-14T13:24:35;95870.00;;;12.00
20848;BMP180;10584;50.854;12.902;2023-03-14T13:29:57;95859.00;;;12.30
20848;BMP180;10584;50.854;12.902;2023-03-14T13:40:43;95863.00;;;12.60
20848;BMP180;10584;50.854;12.902;2023-03-14T13:46:14;95876.00;;;12.70
20848;BMP180;10584;50.854;12.902;2023-03-14T13:51:39;95869.00;;;12.80
20848;BMP180;10584;50.854;12.902;2023-03-14T13:57:03;95860.00;;;12.70
20848;BMP180;10584;50.854;12.902;2023-03-14T14:02:26;95857.00;;;12.60
20848;BMP180;10584;50.854;12.902;2023-03-14T14:07:49;95855.00;;;12.40
20848;BMP180;10584;50.854;12.902;2023-03-14T14:13:16;95846.00;;;12.40
20848;BMP180;10584;50.854;12.902;2023-03-14T14:18:40;95840.00;;;12.50
20848;BMP180;10584;50.854;12.902;2023-03-14T14:24:03;95831.00;;;12.50
20848;BMP180;10584;50.854;12.902;2023-03-14T14:29:33;95838.00;;;12.90
20848;BMP180;10584;50.854;12.902;2023-03-14T14:40:25;95845.00;;;13.10
20848;BMP180;10584;50.854;12.902;2023-03-14T14:45:50;95842.00;;;12.70
20848;BMP180;10584;50.854;12.902;2023-03-14T14:51:27;95855.00;;;12.40
20848;BMP180;10584;50.854;12.902;2023-03-14T14:56:53;95847.00;;;12.30
20848;BMP180;10584;50.854;12.902;2023-03-14T15:02:45;95849.00;;;12.20
20848;BMP180;10584;50.854;12.902;2023-03-14T15:08:11;95865.00;;;12.10
20848;BMP180;10584;50.854;12.902;2023-03-14T15:13:33;95878.00;;;11.90
20848;BMP180;10584;50.854;12.902;2023-03-14T15:18:57;95890.00;;;11.50
20848;BMP180;10584;50.854;12.902;2023-03-14T15:24:20;95901.00;;;11.20
20848;BMP180;10584;50.854;12.902;2023-03-14T15:29:42;95904.00;;;10.80
20848;BMP180;10584;50.854;12.902;2023-03-14T15:35:04;95920.00;;;10.50
20848;BMP180;10584;50.854;12.902;2023-03-14T15:40:26;95930.00;;;10.30
20848;BMP180;10584;50.854;12.902;2023-03-14T15:45:50;95943.00;;;10.30
20848;BMP180;10584;50.854;12.902;2023-03-14T15:51:14;95959.00;;;10.10
20848;BMP180;10584;50.854;12.902;2023-03-14T15:56:36;95979.00;;;9.70
20848;BMP180;10584;50.854;12.902;2023-03-14T16:02:00;95980.00;;;9.80
20848;BMP180;10584;50.854;12.902;2023-03-14T16:07:22;95993.00;;;9.70
20848;BMP180;10584;50.854;12.902;2023-03-14T16:12:43;96040.00;;;9.70
20848;BMP180;10584;50.854;12.902;2023-03-14T16:18:05;96126.00;;;7.70
20848;BMP180;10584;50.854;12.902;2023-03-14T16:23:41;96138.00;;;7.10
20848;BMP180;10584;50.854;12.902;2023-03-14T16:29:03;96185.00;;;6.00
20848;BMP180;10584;50.854;12.902;2023-03-14T16:34:25;96230.00;;;5.80
20848;BMP180;10584;50.854;12.902;2023-03-14T16:39:48;96270.00;;;4.60
20848;BMP180;10584;50.854;12.902;2023-03-14T16:45:29;96298.00;;;4.20
20848;BMP180;10584;50.854;12.902;2023-03-14T16:50:51;96349.00;;;4.10
20848;BMP180;10584;50.854;12.902;2023-03-14T16:56:13;96378.00;;;3.80
20848;BMP180;10584;50.854;12.902;2023-03-14T17:01:35;96409.00;;;3.60
20848;BMP180;10584;50.854;12.902;2023-03-14T17:06:58;96435.00;;;3.50
20848;BMP180;10584;50.854;12.902;2023-03-14T17:12:20;96505.00;;;3.30
20848;BMP180;10584;50.854;12.902;2023-03-14T17:17:41;96542.00;;;3.30
20848;BMP180;10584;50.854;12.902;2023-03-14T17:23:03;96566.00;;;3.00
20848;BMP180;10584;50.854;12.902;2023-03-14T17:28:25;96604.00;;;2.90
20848;BMP180;10584;50.854;12.902;2023-03-14T17:33:47;96630.00;;;2.60
20848;BMP180;10584;50.854;12.902;2023-03-14T17:39:11;96665.00;;;2.50
20848;BMP180;10584;50.854;12.902;2023-03-14T17:44:36;96685.00;;;2.30
20848;BMP180;10584;50.854;12.902;2023-03-14T17:49:58;96718.00;;;2.30
20848;BMP180;10584;50.854;12.902;2023-03-14T17:55:19;96730.00;;;2.10
20848;BMP180;10584;50.854;12.902;2023-03-14T18:00:41;96727.00;;;2.10
20848;BMP180;10584;50.854;12.902;2023-03-14T18:06:07;96734.00;;;2.10
20848;BMP180;10584;50.854;12.902;2023-03-14T18:11:29;96753.00;;;2.20
20848;BMP180;10584;50.854;12.902;2023-03-14T18:16:51;96774.00;;;2.20
20848;BMP180;10584;50.854;12.902;2023-03-14T18:22:14;96774.00;;;2.20
20848;BMP180;10584;50.854;12.902;2023-03-14T18:27:36;96800.00;;;2.20
20848;BMP180;10584;50.854;12.902;2023-03-14T18:32:58;96811.00;;;2.30
20848;BMP180;10584;50.854;12.902;2023-03-14T18:38:20;96815.00;;;2.20
20848;BMP180;10584;50.854;12.902;2023-03-14T18:43:42;96823.00;;;2.10
20848;BMP180;10584;50.854;12.902;2023-03-14T18:49:04;96835.00;;;2.30
20848;BMP180;10584;50.854;12.902;2023-03-14T18:54:26;96859.00;;;2.20
20848;BMP180;10584;50.854;12.902;2023-03-14T18:59:47;96861.00;;;2.30
20848;BMP180;10584;50.854;12.902;2023-03-14T19:05:09;96871.00;;;2.20
20848;BMP180;10584;50.854;12.902;2023-03-14T19:10:33;96882.00;;;2.30
20848;BMP180;10584;50.854;12.902;2023-03-14T19:15:58;96906.00;;;2.20
20848;BMP180;10584;50.854;12.902;2023-03-14T19:21:32;96915.00;;;2.20
20848;BMP180;10584;50.854;12.902;2023-03-14T19:26:54;96918.00;;;2.30
20848;BMP180;10584;50.854;12.902;2023-03-14T19:32:18;96942.00;;;2.20
20848;BMP180;10584;50.854;12.902;2023-03-14T19:37:40;96948.00;;;2.20
20848;BMP180;10584;50.854;12.902;2023-03-14T19:43:03;96962.00;;;2.20
20848;BMP180;10584;50.854;12.902;2023-03-14T19:48:24;96978.00;;;2.20
20848;BMP180;10584;50.854;12.902;2023-03-14T19:53:51;96984.00;;;2.20
20848;BMP180;10584;50.854;12.902;2023-03-14T19:59:13;96997.00;;;2.20
20848;BMP180;10584;50.854;12.902;2023-03-14T20:04:35;97011.00;;;2.30
20848;BMP180;10584;50.854;12.902;2023-03-14T20:09:57;97010.00;;;2.20
20848;BMP180;10584;50.854;12.902;2023-03-14T20:15:20;97037.00;;;2.30
20848;BMP180;10584;50.854;12.902;2023-03-14T20:20:42;97044.00;;;2.20
20848;BMP180;10584;50.854;12.902;2023-03-14T20:26:04;97055.00;;;2.10
20848;BMP180;10584;50.854;12.902;2023-03-14T20:31:26;97049.00;;;2.30
20848;BMP180;10584;50.854;12.902;2023-03-14T20:36:48;97063.00;;;2.40
20848;BMP180;10584;50.854;12.902;2023-03-14T20:42:13;97084.00;;;2.40
20848;BMP180;10584;50.854;12.902;2023-03-14T20:47:35;97097.00;;;2.40
20848;BMP180;10584;50.854;12.902;2023-03-14T20:52:57;97109.00;;;2.40
20848;BMP180;10584;50.854;12.902;2023-03-14T20:58:18;97120.00;;;2.50
20848;BMP180;10584;50.854;12.902;2023-03-14T21:03:40;97135.00;;;2.60
20848;BMP180;10584;50.854;12.902;2023-03-14T21:09:02;97151.00;;;2.50
20848;BMP180;10584;50.854;12.902;2023-03-14T21:14:25;97143.00;;;2.60
20848;BMP180;10584;50.854;12.902;2023-03-14T21:19:47;97163.00;;;2.60
20848;BMP180;10584;50.854;12.902;2023-03-14T21:25:09;97173.00;;;2.50
20848;BMP180;10584;50.854;12.902;2023-03-14T21:30:32;97158.00;;;2.60
20848;BMP180;10584;50.854;12.902;2023-03-14T21:35:54;97173.00;;;2.60
20848;BMP180;10584;50.854;12.902;2023-03-14T21:41:16;97172.00;;;2.40
20848;BMP180;10584;50.854;12.902;2023-03-14T21:46:37;97186.00;;;2.40
20848;BMP180;10584;50.854;12.902;2023-03-14T21:51:59;97193.00;;;2.40
20848;BMP180;10584;50.854;12.902;2023-03-14T21:57:25;97191.00;;;2.30
20848;BMP180;10584;50.854;12.902;2023-03-14T22:02:51;97196.00;;;2.20
20848;BMP180;10584;50.854;12.902;2023-03-14T22:08:31;97216.00;;;2.10
20848;BMP180;10584;50.854;12.902;2023-03-14T22:13:53;97217.00;;;2.00
20848;BMP180;10584;50.854;12.902;2023-03-14T22:19:15;97215.00;;;2.20
20848;BMP180;10584;50.854;12.902;2023-03-14T22:24:36;97233.00;;;2.20
20848;BMP180;10584;50.854;12.902;2023-03-14T22:29:58;97227.00;;;2.10
20848;BMP180;10584;50.854;12.902;2023-03-14T22:35:22;97240.00;;;2.00
20848;BMP180;10584;50.854;12.902;2023-03-14T22:40:44;97262.00;;;1.90
20848;BMP180;10584;50.854;12.902;2023-03-14T22:46:08;97260.00;;;1.90
20848;BMP180;10584;50.854;12.902;2023-03-14T22:51:29;97268.00;;;1.80
20848;BMP180;10584;50.854;12.902;2023-03-14T22:56:51;97272.00;;;1.80
20848;BMP180;10584;50.854;12.902;2023-03-14T23:02:13;97280.00;;;1.70
20848;BMP180;10584;50.854;12.902;2023-03-14T23:07:34;97277.00;;;1.60
20848;BMP180;10584;50.854;12.902;2023-03-14T23:12:56;97280.00;;;1.50
20848;BMP180;10584;50.854;12.902;2023-03-14T23:18:17;97285.00;;;1.40
20848;BMP180;10584;50.854;12.902;2023-03-14T23:23:40;97285.00;;;1.40
20848;BMP180;10584;50.854;12.902;2023-03-14T23:29:03;97298.00;;;1.50
20848;BMP180;10584;50.854;12.902;2023-03-14T23:34:27;97320.00;;;1.40
20848;BMP180;10584;50.854;12.902;2023-03-14T23:39:49;97326.00;;;1.30
20848;BMP180;10584;50.854;12.902;2023-03-14T23:45:11;97331.00;;;1.30
20848;BMP180;10584;50.854;12.902;2023-03-14T23:50:35;97334.00;;;1.40
20848;BMP180;10584;50.854;12.902;2023-03-14T23:55:57;97348.00;;;1.40
